Time;durP1;ratioP1;P1;durP2;ratioP2;P2;SDS_P1;SDS_P2;PMS_P1;PMS_P2;Temp;Humidity;BMP_temperature;BMP_pressure;BME280_temperature;BME280_humidity;BME280_pressure;Samples;Min_cycle;Max_cycle;Signal;HPM_P1;HPM_P2
2023/12/04 00:02:17;;;;;;;15.40;8.30;;;;;;;-147.86;100.00;46026.96;105843;1254;71439;-43
2023/12/04 00:04:45;;;;;;;9.00;5.60;;;;;;;-147.86;100.00;46021.48;105741;1259;59794;-42
2023/12/04 00:07:13;;;;;;;15.30;8.20;;;;;;;-147.86;100.00;46020.69;105816;1258;59691;-43
2023/12/04 00:09:41;;;;;;;14.40;7.90;;;;;;;-147.86;100.00;46021.09;105797;1259;73007;-42
2023/12/04 00:12:09;;;;;;;18.30;8.40;;;;;;;-147.86;100.00;46017.95;105851;1254;65961;-43
2023/12/04 00:14:38;;;;;;;13.60;7.50;;;;;;;-147.86;100.00;46017.17;105737;1259;71514;-43
2023/12/04 00:17:23;;;;;;;16.30;9.80;;;;;;;-147.86;100.00;46014.81;105770;1253;60851;-43
2023/12/04 00:19:52;;;;;;;20.80;10.90;;;;;;;-147.86;100.00;46015.99;105794;1259;59708;-43
2023/12/04 00:22:20;;;;;;;23.20;10.90;;;;;;;-147.86;100.00;46015.21;105821;1254;71837;-43
2023/12/04 00:24:47;;;;;;;16.70;9.50;;;;;;;-147.86;100.00;46014.81;105753;1254;65241;-43
2023/12/04 00:27:17;;;;;;;18.40;10.20;;;;;;;-147.86;100.00;46016.38;105785;1257;72841;-43
2023/12/04 00:29:44;;;;;;;18.60;9.80;;;;;;;-147.86;100.00;46016.38;105739;1254;59893;-42
2023/12/04 00:32:12;;;;;;;16.70;10.00;;;;;;;-147.86;100.00;46016.38;105777;1259;60008;-42
2023/12/04 00:34:41;;;;;;;15.80;9.40;;;;;;;-147.86;100.00;46015.21;105769;1254;73006;-42
2023/12/04 00:37:16;;;;;;;15.70;8.70;;;;;;;-147.86;100.00;46014.42;105786;1258;65162;-43
2023/12/04 00:39:43;;;;;;;15.50;8.60;;;;;;;-147.86;100.00;46015.60;105763;1259;71439;-43
2023/12/04 00:42:18;;;;;;;13.40;8.00;;;;;;;-147.86;100.00;46015.99;105726;1257;60873;-43
2023/12/04 00:44:49;;;;;;;15.00;7.90;;;;;;;-147.86;100.00;46019.13;105760;1255;59533;-42
2023/12/04 00:47:17;;;;;;;12.20;6.90;;;;;;;-147.86;100.00;46017.55;105713;1257;71348;-42
2023/12/04 00:49:45;;;;;;;9.00;5.10;;;;;;;-147.86;100.00;46019.91;105773;1253;64169;-42
2023/12/04 00:52:26;;;;;;;13.30;7.50;;;;;;;-147.86;100.00;46018.34;105736;1257;72649;-42
2023/12/04 00:54:54;;;;;;;13.60;7.60;;;;;;;-147.86;100.00;46021.87;105777;1259;59807;-42
2023/12/04 00:57:24;;;;;;;14.30;8.00;;;;;;;-147.86;100.00;46021.09;105750;1257;59673;-43
2023/12/04 00:59:52;;;;;;;14.00;7.30;;;;;;;-147.86;100.00;46019.91;105737;1257;73025;-43
2023/12/04 01:02:19;;;;;;;8.00;4.40;;;;;;;-147.86;100.00;46020.30;105739;1255;63478;-42
2023/12/04 01:04:47;;;;;;;10.00;5.70;;;;;;;-147.86;100.00;46023.43;105751;1255;71780;-43
2023/12/04 01:07:20;;;;;;;13.40;6.10;;;;;;;-147.86;100.00;46026.57;105772;1258;60812;-43
2023/12/04 01:09:48;;;;;;;9.40;5.50;;;;;;;-147.86;100.00;46030.88;105743;1258;60068;-43
2023/12/04 01:12:16;;;;;;;9.80;5.70;;;;;;;-147.86;100.00;46032.05;105760;1257;71810;-42
2023/12/04 01:14:47;;;;;;;8.30;4.20;;;;;;;-147.86;100.00;46034.80;105732;1257;65233;-42
2023/12/04 01:17:17;;;;;;;9.60;5.60;;;;;;;-147.86;100.00;46033.62;105757;1258;72689;-43
2023/12/04 01:19:47;;;;;;;13.00;5.80;;;;;;;-147.86;100.00;46032.84;105836;1257;59836;-43
2023/12/04 01:22:24;;;;;;;9.60;5.50;;;;;;;-147.86;100.00;46030.48;105938;1257;59619;-42
2023/12/04 01:24:52;;;;;;;16.00;5.10;;;;;;;-147.86;100.00;46030.48;105861;1253;71823;-44
2023/12/04 01:27:20;;;;;;;11.00;5.10;;;;;;;-147.86;100.00;46028.14;105916;1256;65144;-42
2023/12/04 01:29:50;;;;;;;15.00;6.30;;;;;;;-147.86;100.00;46028.13;105829;1260;71671;-43
2023/12/04 01:32:18;;;;;;;12.00;6.60;;;;;;;-147.86;100.00;46025.79;105878;1257;59330;-43
2023/12/04 01:34:46;;;;;;;10.30;6.00;;;;;;;-147.86;100.00;46024.22;105841;1264;59764;-43
2023/12/04 01:37:19;;;;;;;11.20;6.60;;;;;;;-147.86;100.00;46021.09;105910;1257;72988;-42
2023/12/04 01:39:50;;;;;;;11.50;6.30;;;;;;;-147.86;100.00;46020.30;105863;1254;63405;-43
2023/12/04 01:42:20;;;;;;;7.50;4.70;;;;;;;-147.86;100.00;46017.95;105882;1266;72636;-43
2023/12/04 01:44:48;;;;;;;14.30;7.60;;;;;;;-147.86;100.00;46017.95;105849;1252;59883;-42
2023/12/04 01:47:16;;;;;;;13.10;7.30;;;;;;;-147.86;100.00;46017.17;105896;1259;59501;-43
2023/12/04 01:49:47;;;;;;;13.70;7.40;;;;;;;-147.86;100.00;46014.81;105874;1259;72178;-43
2023/12/04 01:52:15;;;;;;;13.30;6.80;;;;;;;-147.86;100.00;46015.20;105913;1260;65291;-43
2023/12/04 01:54:43;;;;;;;13.60;7.50;;;;;;;-147.86;100.00;46015.21;105858;1259;71967;-41
2023/12/04 01:57:13;;;;;;;12.60;7.30;;;;;;;-147.86;100.00;46015.20;105828;1260;59769;-42
2023/12/04 01:59:42;;;;;;;13.80;7.60;;;;;;;-147.86;100.00;46017.55;105873;1252;60036;-42
2023/12/04 02:02:09;;;;;;;13.00;5.90;;;;;;;-147.86;100.00;46015.21;105814;1257;73043;-42
2023/12/04 02:04:38;;;;;;;13.80;7.90;;;;;;;-147.86;100.00;46014.81;105870;1253;64300;-42
2023/12/04 02:07:09;;;;;;;13.90;7.50;;;;;;;-147.86;100.00;46015.99;105891;1254;72677;-43
2023/12/04 02:09:37;;;;;;;18.20;8.30;;;;;;;-147.86;100.00;46017.55;105918;1257;59729;-42
2023/12/04 02:12:06;;;;;;;13.10;7.20;;;;;;;-147.86;100.00;46015.99;105914;1257;59666;-42
2023/12/04 02:14:33;;;;;;;16.60;7.00;;;;;;;-147.86;100.00;46017.16;105880;1257;71795;-43
2023/12/04 02:17:02;;;;;;;11.20;6.60;;;;;;;-147.86;100.00;46016.38;105692;1258;63923;-43
2023/12/04 02:19:30;;;;;;;16.90;8.00;;;;;;;-147.86;100.00;46021.48;105676;1253;72670;-42
2023/12/04 02:21:58;;;;;;;12.60;7.50;;;;;;;-147.86;100.00;46017.95;105865;1257;59710;-42
2023/12/04 02:24:38;;;;;;;;;;;;;;;;;;;;;
2023/12/04 02:27:21;;;;;;;14.00;7.50;;;;;;;-147.86;100.00;46016.77;105863;1256;73008;-42
2023/12/04 02:29:54;;;;;;;14.40;7.50;;;;;;;-147.86;100.00;46017.55;105900;1254;64303;-42
2023/12/04 02:32:21;;;;;;;15.50;7.60;;;;;;;-147.86;100.00;46020.30;105864;1258;71505;-44
2023/12/04 02:35:00;;;;;;;14.90;8.10;;;;;;;-147.86;100.00;46020.30;105695;1259;59657;-43
2023/12/04 02:37:30;;;;;;;15.90;8.00;;;;;;;-147.86;100.00;46022.65;105739;1251;60099;-43
2023/12/04 02:39:58;;;;;;;15.10;8.40;;;;;;;-147.86;100.00;46026.18;105683;1259;73164;-43
2023/12/04 02:42:27;;;;;;;16.30;8.60;;;;;;;-147.86;100.00;46025.79;105857;1252;63947;-44
2023/12/04 02:44:54;;;;;;;16.00;7.40;;;;;;;-147.86;100.00;46028.53;105860;1255;71859;-43
2023/12/04 02:47:25;;;;;;;16.40;8.50;;;;;;;-147.86;100.00;46030.10;105906;1257;60361;-44
2023/12/04 02:49:53;;;;;;;14.80;8.40;;;;;;;-147.86;100.00;46030.09;105899;1267;60805;-43
2023/12/04 02:52:23;;;;;;;16.10;8.10;;;;;;;-147.86;100.00;46028.92;105870;1257;71920;-43
2023/12/04 02:54:53;;;;;;;15.90;7.70;;;;;;;-147.86;100.00;46033.62;105862;1251;65305;-43
2023/12/04 02:57:21;;;;;;;14.80;7.90;;;;;;;-147.86;100.00;46031.27;105848;1258;71078;-44
2023/12/04 02:59:49;;;;;;;16.10;8.90;;;;;;;-147.86;100.00;46033.23;105905;1257;60898;-44
2023/12/04 03:02:29;;;;;;;15.70;8.30;;;;;;;-147.86;100.00;46034.80;105882;1257;60419;-44
2023/12/04 03:04:56;;;;;;;15.50;6.40;;;;;;;-147.86;100.00;46033.63;105831;1257;73861;-44
2023/12/04 03:07:26;;;;;;;16.30;6.90;;;;;;;-147.86;100.00;46034.80;105985;1257;64279;-45
2023/12/04 03:09:55;;;;;;;13.50;8.30;;;;;;;-147.86;100.00;46036.76;105847;1256;72717;-44
2023/12/04 03:12:22;;;;;;;12.40;7.30;;;;;;;-147.86;100.00;46035.19;105936;1257;60431;-45
2023/12/04 03:14:51;;;;;;;14.40;6.60;;;;;;;-147.86;100.00;46034.41;105851;1252;60315;-45
2023/12/04 03:17:23;;;;;;;14.80;7.50;;;;;;;-147.86;100.00;46029.31;105885;1256;72849;-46
2023/12/04 03:19:52;;;;;;;9.30;5.50;;;;;;;-147.86;100.00;46028.52;105826;1254;65706;-44
2023/12/04 03:22:22;;;;;;;12.50;7.10;;;;;;;-147.86;100.00;46029.31;105857;1254;71734;-45
2023/12/04 03:24:54;;;;;;;11.80;6.30;;;;;;;-147.86;100.00;46028.53;105829;1255;60413;-45
2023/12/04 03:27:22;;;;;;;11.40;6.40;;;;;;;-147.86;100.00;46029.70;105921;1254;60432;-45
2023/12/04 03:29:57;;;;;;;13.00;5.80;;;;;;;-147.86;100.00;46031.27;105823;1255;72937;-45
2023/12/04 03:32:28;;;;;;;;;;;;;;;-147.86;100.00;46031.27;105892;1257;64003;-45
2023/12/04 03:34:56;;;;;;;9.10;5.70;;;;;;;-147.86;100.00;46030.49;105848;1259;71439;-45
2023/12/04 03:37:24;;;;;;;12.80;6.60;;;;;;;-147.86;100.00;46032.45;105952;1256;60604;-45
2023/12/04 03:39:58;;;;;;;10.00;6.20;;;;;;;-147.86;100.00;46031.66;105856;1254;60342;-45
2023/12/04 03:42:33;;;;;;;11.00;6.10;;;;;;;-147.86;100.00;46033.62;105852;1256;73821;-46
2023/12/04 03:45:02;;;;;;;11.70;5.50;;;;;;;-147.86;100.00;46032.45;105885;1255;64004;-45
2023/12/04 03:47:30;;;;;;;9.10;5.60;;;;;;;-147.86;100.00;46032.84;105907;1258;70832;-45
2023/12/04 03:49:58;;;;;;;14.80;6.80;;;;;;;-147.86;100.00;46034.01;105953;1259;60531;-46
2023/12/04 03:52:30;;;;;;;9.80;5.60;;;;;;;-147.86;100.00;46032.05;105861;1252;60499;-45
2023/12/04 03:55:01;;;;;;;14.20;6.70;;;;;;;-147.86;100.00;46031.66;105869;1257;73777;-43
2023/12/04 03:57:32;;;;;;;10.40;5.20;;;;;;;-147.86;100.00;46032.45;105876;1256;65149;-43
2023/12/04 03:59:59;;;;;;;10.30;6.10;;;;;;;-147.86;100.00;46031.27;105859;1257;72604;-44
2023/12/04 04:02:39;;;;;;;11.00;6.60;;;;;;;-147.86;100.00;46029.70;105864;1253;60434;-44
2023/12/04 04:05:08;;;;;;;9.50;5.90;;;;;;;-147.86;100.00;46027.74;105874;1258;60348;-43
2023/12/04 04:07:35;;;;;;;8.80;5.00;;;;;;;-147.86;100.00;46030.49;105829;1253;72572;-44
2023/12/04 04:10:04;;;;;;;11.80;5.50;;;;;;;-147.86;100.00;46029.70;105887;1254;64075;-45
2023/12/04 04:37:57;;;;;;;9.20;5.40;;;;;;;-147.86;100.00;46040.68;102647;1297;600189;-46
2023/12/04 04:40:25;;;;;;;9.70;5.40;;;;;;;-147.86;100.00;46020.69;104811;1272;59331;-45
2023/12/04 04:43:00;;;;;;;9.90;5.50;;;;;;;-147.86;100.00;46022.26;104934;1271;59341;-45
2023/12/04 04:45:28;;;;;;;8.40;6.00;;;;;;;-147.86;100.00;46019.91;104796;1272;71013;-45
2023/12/04 04:47:56;;;;;;;11.40;6.30;;;;;;;-147.86;100.00;46017.16;105325;1263;63997;-44
2023/12/04 04:50:24;;;;;;;10.00;5.70;;;;;;;-147.86;100.00;46017.55;105098;1263;242124;-49
2023/12/04 04:52:52;;;;;;;14.20;6.50;;;;;;;-147.86;100.00;46018.73;105588;1257;59231;-45
2023/12/04 04:55:20;;;;;;;12.10;6.60;;;;;;;-147.86;100.00;46019.12;105476;1262;60266;-43
2023/12/04 04:58:08;;;;;;;14.70;6.90;;;;;;;-147.86;100.00;46019.51;105539;1262;72197;-44
2023/12/04 05:00:40;;;;;;;13.40;6.20;;;;;;;-147.86;100.00;46019.91;105473;1262;64028;-44
2023/12/04 05:03:08;;;;;;;12.90;6.50;;;;;;;-147.86;100.00;46020.69;105281;1270;71418;-43
2023/12/04 05:05:41;;;;;;;12.70;7.00;;;;;;;-147.86;100.00;46024.22;105155;1261;61284;-43
2023/12/04 05:08:09;;;;;;;11.90;6.30;;;;;;;-147.86;100.00;46024.61;105499;1262;59605;-44
2023/12/04 05:10:38;;;;;;;14.80;6.60;;;;;;;-147.86;100.00;46026.96;105469;1262;73029;-45
2023/12/04 05:13:07;;;;;;;13.40;7.10;;;;;;;-147.86;100.00;46030.49;105521;1262;63803;-46
2023/12/04 05:15:35;;;;;;;10.60;6.40;;;;;;;-147.86;100.00;46032.05;105476;1259;71282;-46
2023/12/04 05:18:02;;;;;;;9.40;6.40;;;;;;;-147.86;100.00;46034.41;105464;1264;59804;-46
2023/12/04 05:20:30;;;;;;;11.90;6.40;;;;;;;-147.86;100.00;46035.58;105508;1263;59976;-44
2023/12/04 05:22:58;;;;;;;13.10;7.00;;;;;;;-147.86;100.00;46038.32;105517;1260;70941;-42
2023/12/04 05:25:26;;;;;;;15.40;7.40;;;;;;;-147.86;100.00;46039.11;105538;1257;64017;-42
2023/12/04 05:28:04;;;;;;;16.60;7.10;;;;;;;-147.86;100.00;46037.54;105525;1257;71432;-42
2023/12/04 05:30:35;;;;;;;12.00;6.70;;;;;;;-147.86;100.00;46039.50;105583;1261;59689;-44
2023/12/04 05:33:04;;;;;;;11.80;6.30;;;;;;;-147.86;100.00;46039.11;105535;1258;59996;-42
2023/12/04 05:35:34;;;;;;;12.10;5.90;;;;;;;-147.86;100.00;46038.32;105533;1262;71863;-44
2023/12/04 05:38:04;;;;;;;8.50;4.90;;;;;;;-147.86;100.00;46035.19;105524;1263;63928;-45
2023/12/04 05:40:35;;;;;;;12.80;5.90;;;;;;;-147.86;100.00;46036.36;105602;1263;72655;-46
2023/12/04 05:43:02;;;;;;;15.80;6.60;;;;;;;-147.86;100.00;46037.15;105487;1259;59635;-45
2023/12/04 05:45:30;;;;;;;13.80;7.00;;;;;;;-147.86;100.00;46038.72;105516;1263;59634;-46
2023/12/04 05:47:58;;;;;;;11.20;5.50;;;;;;;-147.86;100.00;46039.50;105442;1258;71630;-46
2023/12/04 05:50:26;;;;;;;9.20;5.10;;;;;;;-147.86;100.00;46040.28;105217;1263;63915;-44
2023/12/04 05:52:54;;;;;;;7.80;4.80;;;;;;;-147.86;100.00;46041.07;105555;1258;72731;-46
2023/12/04 05:55:21;;;;;;;7.90;4.60;;;;;;;-147.86;100.00;46037.15;105581;1259;59755;-45
2023/12/04 05:57:49;;;;;;;9.50;4.70;;;;;;;-147.86;100.00;46033.62;105638;1254;59966;-45
2023/12/04 06:00:17;;;;;;;7.30;4.50;;;;;;;-147.86;100.00;46032.45;105593;1259;72987;-45
2023/12/04 06:02:45;;;;;;;8.90;5.60;;;;;;;-147.86;100.00;46032.05;105584;1264;64013;-42
2023/12/04 06:05:13;;;;;;;7.50;5.30;;;;;;;-147.86;100.00;46034.01;105563;1259;72593;-43
2023/12/04 06:07:41;;;;;;;9.90;5.00;;;;;;;-147.86;100.00;46039.89;105708;1260;59759;-44
2023/12/04 06:10:09;;;;;;;9.10;5.30;;;;;;;-147.86;100.00;46038.71;105722;1260;59694;-44
2023/12/04 06:12:37;;;;;;;8.30;5.50;;;;;;;-147.86;100.00;46043.42;105754;1254;70929;-44
2023/12/04 06:15:06;;;;;;;8.80;5.80;;;;;;;-147.86;100.00;46043.81;105671;1256;64068;-45
2023/12/04 06:17:34;;;;;;;15.60;6.40;;;;;;;-147.86;100.00;46046.94;105730;1260;71425;-47
2023/12/04 06:20:01;;;;;;;9.20;5.40;;;;;;;-147.86;100.00;46049.69;105697;1260;59644;-44
2023/12/04 06:22:29;;;;;;;10.10;5.90;;;;;;;-147.86;100.00;46052.43;105657;1259;60040;-48
2023/12/04 06:24:57;;;;;;;10.40;5.40;;;;;;;-147.86;100.00;46056.35;105748;1259;72947;-46
2023/12/04 06:27:25;;;;;;;9.40;5.40;;;;;;;-147.86;100.00;46057.91;105715;1253;64299;-49
2023/12/04 06:29:54;;;;;;;8.30;5.70;;;;;;;-147.86;100.00;46055.57;105713;1258;72669;-45
2023/12/04 06:32:22;;;;;;;11.20;5.40;;;;;;;-147.86;100.00;46056.35;105717;1261;59769;-44
2023/12/04 06:34:50;;;;;;;8.30;5.20;;;;;;;-147.86;100.00;46054.00;105729;1255;60082;-44
2023/12/04 06:37:18;;;;;;;10.30;5.50;;;;;;;-147.86;100.00;46055.18;105709;1254;71831;-43
2023/12/04 06:39:46;;;;;;;7.50;4.80;;;;;;;-147.86;100.00;46054.00;105723;1260;64070;-43
2023/12/04 06:42:15;;;;;;;12.40;5.70;;;;;;;-147.86;100.00;46053.21;105648;1254;71467;-44
2023/12/04 06:44:43;;;;;;;10.30;5.80;;;;;;;-147.86;100.00;46051.65;105703;1254;59615;-44
2023/12/04 06:47:12;;;;;;;6.80;5.30;;;;;;;-147.86;100.00;46050.87;105713;1255;59993;-42
2023/12/04 06:49:39;;;;;;;5.30;4.30;;;;;;;-147.86;100.00;46050.47;105732;1260;72111;-43
2023/12/04 06:52:07;;;;;;;8.90;5.40;;;;;;;-147.86;100.00;46047.34;105723;1264;63927;-44
2023/12/04 06:54:35;;;;;;;8.30;5.00;;;;;;;-147.86;100.00;46048.90;105667;1257;71427;-44
2023/12/04 06:57:03;;;;;;;8.20;5.20;;;;;;;-147.86;100.00;46043.02;105698;1260;59616;-43
2023/12/04 06:59:31;;;;;;;9.10;4.60;;;;;;;-147.86;100.00;46045.77;105709;1259;59576;-43
2023/12/04 07:01:59;;;;;;;5.90;3.90;;;;;;;-147.86;100.00;46040.28;105932;1257;71235;-43
2023/12/04 07:04:27;;;;;;;6.30;4.30;;;;;;;-147.86;100.00;46039.11;105685;1259;63936;-42
2023/12/04 07:06:55;;;;;;;8.40;4.10;;;;;;;-147.86;100.00;46034.02;105678;1259;71385;-43
2023/12/04 07:09:22;;;;;;;8.90;5.00;;;;;;;-147.86;100.00;46027.35;105674;1254;59755;-44
2023/12/04 07:11:50;;;;;;;7.90;4.10;;;;;;;-147.86;100.00;46025.00;105696;1260;59858;-44
2023/12/04 07:14:19;;;;;;;5.40;3.60;;;;;;;-147.86;100.00;46021.48;105663;1258;72980;-44
2023/12/04 07:16:47;;;;;;;4.90;3.80;;;;;;;-147.86;100.00;46018.73;105677;1260;64158;-42
2023/12/04 07:19:16;;;;;;;6.50;3.70;;;;;;;-147.86;100.00;46019.12;105723;1254;71400;-43
2023/12/04 07:21:44;;;;;;;7.50;4.70;;;;;;;-147.86;100.00;46017.95;105737;1254;59730;-43
2023/12/04 07:24:12;;;;;;;6.70;4.80;;;;;;;-147.86;100.00;46017.95;105715;1259;59628;-42
2023/12/04 07:26:40;;;;;;;7.20;4.30;;;;;;;-147.86;100.00;46017.55;105728;1259;73133;-42
2023/12/04 07:29:08;;;;;;;8.10;4.70;;;;;;;-147.86;100.00;46019.13;105687;1254;65065;-42
2023/12/04 07:31:37;;;;;;;8.50;4.50;;;;;;;-147.86;100.00;46017.95;105857;1253;71358;-43
2023/12/04 07:34:05;;;;;;;7.80;4.70;;;;;;;-147.86;100.00;46016.77;105732;1260;60956;-42
2023/12/04 07:36:33;;;;;;;5.50;3.80;;;;;;;-147.86;100.00;46017.16;105730;1259;59679;-43
2023/12/04 07:39:01;;;;;;;5.10;4.10;;;;;;;-147.86;100.00;46017.17;105727;1254;71643;-43
2023/12/04 07:41:28;;;;;;;6.70;4.50;;;;;;;-147.86;100.00;46015.99;105692;1254;63657;-44
2023/12/04 07:43:56;;;;;;;5.80;4.40;;;;;;;-147.86;100.00;46019.12;105705;1260;72614;-41
2023/12/04 07:46:25;;;;;;;7.20;4.50;;;;;;;-147.86;100.00;46019.12;105714;1260;59784;-42
2023/12/04 07:48:53;;;;;;;5.40;4.10;;;;;;;-147.86;100.00;46020.30;105727;1254;60394;-43
2023/12/04 07:51:23;;;;;;;6.70;4.60;;;;;;;-147.86;100.00;46019.91;105725;1253;71844;-43
2023/12/04 07:53:51;;;;;;;5.90;3.90;;;;;;;-147.86;100.00;46018.73;105665;1260;64028;-41
2023/12/04 07:56:19;;;;;;;6.30;4.10;;;;;;;-147.86;100.00;46019.52;105871;1259;72627;-44
2023/12/04 07:58:47;;;;;;;4.10;3.30;;;;;;;-147.86;100.00;46018.34;105724;1254;59733;-44
2023/12/04 08:01:15;;;;;;;6.00;3.50;;;;;;;-147.86;100.00;46015.21;105695;1254;59972;-42
2023/12/04 08:03:43;;;;;;;3.60;2.60;;;;;;;-147.86;100.00;46017.16;105680;1254;71585;-43
2023/12/04 08:06:11;;;;;;;3.40;2.90;;;;;;;-147.86;100.00;46016.38;105820;1254;64009;-43
2023/12/04 08:08:42;;;;;;;4.60;3.50;;;;;;;-147.86;100.00;46019.13;105647;1254;71172;-42
2023/12/04 08:11:10;;;;;;;5.80;3.20;;;;;;;-147.86;100.00;46023.43;105720;1254;59615;-44
2023/12/04 08:13:38;;;;;;;3.50;3.10;;;;;;;-147.86;100.00;46022.26;105707;1254;59605;-44
2023/12/04 08:16:13;;;;;;;6.60;3.30;;;;;;;-147.86;100.00;46023.83;105717;1260;71559;-43
2023/12/04 08:18:41;;;;;;;4.80;3.50;;;;;;;-147.86;100.00;46023.43;105732;1261;65169;-44
2023/12/04 08:21:09;;;;;;;3.60;2.80;;;;;;;-147.86;100.00;46023.83;105668;1259;71369;-43
2023/12/04 08:23:37;;;;;;;4.30;3.10;;;;;;;-147.86;100.00;46026.57;105676;1259;59682;-43
2023/12/04 08:26:05;;;;;;;4.30;3.30;;;;;;;-147.86;100.00;46028.53;105751;1254;59676;-44
2023/12/04 08:28:35;;;;;;;4.90;2.90;;;;;;;-147.86;100.00;46029.31;105684;1260;72358;-42
2023/12/04 08:31:04;;;;;;;3.50;3.00;;;;;;;-147.86;100.00;46029.31;105715;1259;65314;-41
2023/12/04 08:33:31;;;;;;;4.50;3.60;;;;;;;-147.86;100.00;46033.63;105683;1258;71640;-42
2023/12/04 08:35:59;;;;;;;5.70;3.40;;;;;;;-147.86;100.00;46033.23;105700;1260;59714;-46
2023/12/04 08:38:27;;;;;;;3.20;2.90;;;;;;;-147.86;100.00;46034.41;105757;1259;59729;-42
2023/12/04 08:40:55;;;;;;;6.40;3.30;;;;;;;-147.86;100.00;46032.05;105679;1254;71846;-45
2023/12/04 08:43:23;;;;;;;4.50;3.10;;;;;;;-147.86;100.00;46032.45;105728;1254;63736;-42
2023/12/04 08:45:51;;;;;;;4.10;3.70;;;;;;;-147.86;100.00;46032.45;105713;1254;71369;-43
2023/12/04 08:48:19;;;;;;;3.50;3.00;;;;;;;-147.86;100.00;46031.66;105662;1260;60527;-43
2023/12/04 08:50:47;;;;;;;4.70;3.50;;;;;;;-147.86;100.00;46033.23;105737;1254;60455;-43
2023/12/04 08:53:14;;;;;;;4.50;3.40;;;;;;;-147.86;100.00;46038.32;105736;1254;72672;-44
2023/12/04 08:55:42;;;;;;;4.00;3.40;;;;;;;-147.86;100.00;46041.07;105719;1254;64045;-45
2023/12/04 08:58:11;;;;;;;5.20;3.40;;;;;;;-147.86;100.00;46040.29;105739;1254;71402;-44
2023/12/04 09:00:42;;;;;;;6.90;3.80;;;;;;;-147.86;100.00;46041.46;105758;1254;60683;-43
2023/12/04 09:03:11;;;;;;;5.80;3.90;;;;;;;-147.86;100.00;46044.20;105723;1254;60520;-43
2023/12/04 09:05:51;;;;;;;6.20;3.50;;;;;;;-147.86;100.00;46046.16;105692;1254;72544;-43
2023/12/04 09:08:21;;;;;;;5.20;3.10;;;;;;;-147.86;100.00;46049.30;105728;1260;65864;-42
2023/12/04 09:11:03;;;;;;;3.60;3.00;;;;;;;-147.86;100.00;46051.65;105683;1255;72385;-43
2023/12/04 09:13:49;;;;;;;5.70;3.30;;;;;;;-147.86;100.00;46052.04;105617;1254;60504;-45
2023/12/04 09:16:17;;;;;;;5.00;3.30;;;;;;;-147.86;100.00;46048.51;105718;1254;60530;-42
2023/12/04 09:18:46;;;;;;;3.90;3.00;;;;;;;-147.86;100.00;46048.12;105723;1255;72762;-43
2023/12/04 09:21:15;;;;;;;3.40;3.10;;;;;;;-147.86;100.00;46052.43;105929;1257;65617;-44
2023/12/04 09:23:42;;;;;;;4.40;3.70;;;;;;;-147.86;100.00;46051.26;105676;1255;72991;-44
2023/12/04 09:26:11;;;;;;;7.50;3.60;;;;;;;-147.86;100.00;46051.65;105665;1254;60568;-44
2023/12/04 09:28:39;;;;;;;3.90;3.30;;;;;;;-147.86;100.00;46050.08;105658;1254;62111;-43
2023/12/04 09:31:08;;;;;;;6.60;3.80;;;;;;;-147.86;100.00;46048.90;105701;1254;74684;-44
2023/12/04 09:33:36;;;;;;;7.00;4.10;;;;;;;-147.86;100.00;46046.16;105737;1258;65127;-43
2023/12/04 09:36:04;;;;;;;6.50;4.20;;;;;;;-147.86;100.00;46041.46;105701;1254;72511;-43
2023/12/04 09:38:32;;;;;;;6.20;4.40;;;;;;;-147.86;100.00;46042.63;105707;1259;60545;-43
2023/12/04 09:41:01;;;;;;;5.10;3.90;;;;;;;-147.86;100.00;46044.59;105688;1259;60460;-42
2023/12/04 09:43:31;;;;;;;4.40;3.50;;;;;;;-147.86;100.00;46045.77;105685;1254;72629;-43
2023/12/04 09:45:59;;;;;;;6.70;3.40;;;;;;;-147.86;100.00;46046.55;105754;1260;65289;-44
2023/12/04 09:48:26;;;;;;;4.80;3.60;;;;;;;-147.86;100.00;46045.38;105751;1254;72470;-43
2023/12/04 09:50:55;;;;;;;4.10;3.60;;;;;;;-147.86;100.00;46047.34;105741;1257;60463;-43
2023/12/04 09:53:26;;;;;;;12.10;3.60;;;;;;;-147.86;100.00;46048.91;105748;1256;60437;-43
2023/12/04 09:55:54;;;;;;;3.20;2.50;;;;;;;-147.86;100.00;46050.86;105715;1254;73973;-43
2023/12/04 09:58:21;;;;;;;6.10;4.10;;;;;;;-147.86;100.00;46051.26;105696;1254;64070;-44
2023/12/04 10:00:49;;;;;;;5.10;3.50;;;;;;;-147.86;100.00;46054.00;105683;1257;71420;-43
2023/12/04 10:03:17;;;;;;;5.30;3.30;;;;;;;-147.86;100.00;46054.78;105675;1259;60967;-44
2023/12/04 10:05:47;;;;;;;5.50;3.70;;;;;;;-147.86;100.00;46054.39;105652;1254;60979;-43
2023/12/04 10:08:16;;;;;;;6.10;4.30;;;;;;;-147.86;100.00;46052.82;105684;1254;73523;-43
2023/12/04 10:10:44;;;;;;;7.40;4.30;;;;;;;-147.86;100.00;46051.65;105687;1254;64421;-44
2023/12/04 10:13:12;;;;;;;5.50;4.50;;;;;;;-147.86;100.00;46051.26;105668;1254;70647;-45
2023/12/04 10:15:59;;;;;;;4.80;3.90;;;;;;;-147.86;100.00;46048.90;105682;1259;60786;-43
2023/12/04 10:18:31;;;;;;;5.50;3.90;;;;;;;-147.86;100.00;46049.30;105741;1254;60527;-43
2023/12/04 10:20:59;;;;;;;5.70;4.10;;;;;;;-147.86;100.00;46047.34;105771;1258;73902;-43
2023/12/04 10:23:38;;;;;;;8.70;5.20;;;;;;;-147.86;100.00;46043.03;105729;1254;63911;-45
2023/12/04 10:26:07;;;;;;;6.50;4.40;;;;;;;-147.86;100.00;46042.24;105667;1254;72898;-43
2023/12/04 10:28:35;;;;;;;7.20;4.60;;;;;;;-147.86;100.00;46044.59;105710;1254;61078;-43
2023/12/04 10:31:06;;;;;;;6.40;4.20;;;;;;;-147.86;100.00;46044.20;105682;1255;60379;-43
2023/12/04 10:33:35;;;;;;;5.90;3.60;;;;;;;-147.86;100.00;46042.64;105773;1257;75689;-44
2023/12/04 10:36:04;;;;;;;6.70;4.60;;;;;;;-147.86;100.00;46044.20;105723;1259;63925;-43
2023/12/04 10:38:32;;;;;;;5.70;3.90;;;;;;;-147.86;100.00;46048.91;105745;1254;72856;-42
2023/12/04 10:41:11;;;;;;;7.40;4.80;;;;;;;-147.86;100.00;46048.90;105697;1254;60549;-43
2023/12/04 10:43:47;;;;;;;5.20;4.10;;;;;;;-147.86;100.00;46048.51;105738;1254;60468;-43
2023/12/04 10:46:27;;;;;;;4.70;3.70;;;;;;;-147.86;100.00;46045.77;105713;1254;73506;-44
2023/12/04 10:48:55;;;;;;;13.80;4.40;;;;;;;-147.86;100.00;46044.99;105728;1256;65170;-43
2023/12/04 10:54:06;;;;;;;;;;;;;;;-147.86;100.00;46028.53;102853;1295;600271;-43
2023/12/04 10:56:40;;;;;;;6.70;4.80;;;;;;;-147.86;100.00;46028.13;105172;1265;59317;-41
2023/12/04 10:59:10;;;;;;;8.10;4.50;;;;;;;-147.86;100.00;46024.21;105040;1269;59333;-44
2023/12/04 11:01:38;;;;;;;8.50;5.40;;;;;;;-147.86;100.00;46025.00;105149;1264;71687;-44
2023/12/04 11:04:07;;;;;;;6.90;4.50;;;;;;;-147.86;100.00;46023.82;105184;1264;63890;-44
2023/12/04 11:06:37;;;;;;;9.50;5.60;;;;;;;-147.86;100.00;46023.82;104983;1269;237946;-43
2023/12/04 11:09:05;;;;;;;8.60;5.40;;;;;;;-147.86;100.00;46023.83;105243;1264;59329;-44
2023/12/04 11:11:35;;;;;;;10.10;5.70;;;;;;;-147.86;100.00;46021.09;105417;1259;59948;-42
2023/12/04 11:14:04;;;;;;;7.80;4.80;;;;;;;-147.86;100.00;46017.55;105552;1261;72545;-45
2023/12/04 11:16:46;;;;;;;8.70;5.50;;;;;;;-147.86;100.00;46016.77;105573;1263;64500;-42
2023/12/04 11:19:39;;;;;;;9.30;6.10;;;;;;;-147.86;100.00;46014.81;106018;1251;72914;-42
2023/12/04 11:22:07;;;;;;;8.60;5.70;;;;;;;-147.86;100.00;46015.60;105997;1257;59637;-42
2023/12/04 11:24:35;;;;;;;9.00;6.10;;;;;;;-147.86;100.00;46016.38;105969;1257;59727;-42
2023/12/04 11:27:03;;;;;;;8.10;5.20;;;;;;;-147.86;100.00;46021.48;105943;1257;73070;-44
2023/12/04 11:29:31;;;;;;;7.90;5.60;;;;;;;-147.86;100.00;46019.91;105871;1251;64806;-44
2023/12/04 11:31:59;;;;;;;9.60;6.10;;;;;;;-147.86;100.00;46023.83;105897;1251;71315;-44
2023/12/04 11:34:27;;;;;;;8.00;6.10;;;;;;;-147.86;100.00;46023.04;105872;1257;60471;-45
2023/12/04 11:36:56;;;;;;;10.10;6.20;;;;;;;-147.86;100.00;46023.43;105839;1257;60663;-45
2023/12/04 11:39:25;;;;;;;9.40;6.00;;;;;;;-147.86;100.00;46024.61;105914;1253;73381;-44